createdAt,value
2022-12-23T00:00:46.851Z,29.80
2022-12-23T00:03:14.746Z,24.80
2022-12-23T00:05:42.740Z,32.10
2022-12-23T00:08:10.495Z,37.50
2022-12-23T00:10:41.150Z,26.20
2022-12-23T00:13:27.596Z,25.70
2022-12-23T00:16:02.097Z,26.42
2022-12-23T00:18:30.117Z,26.27
2022-12-23T00:21:08.606Z,24.25
2022-12-23T00:23:37.803Z,33.07
2022-12-23T00:26:05.555Z,27.50
2022-12-23T00:28:33.353Z,24.38
2022-12-23T00:31:05.024Z,27.33
2022-12-23T00:33:36.854Z,26.63
2022-12-23T00:36:11.765Z,23.60
2022-12-23T00:38:57.946Z,32.90
2022-12-23T00:41:44.506Z,25.67
2022-12-23T00:44:12.204Z,28.75
2022-12-23T00:46:40.072Z,30.05
2022-12-23T00:49:26.536Z,29.57
2022-12-23T00:51:54.324Z,28.67
2022-12-23T00:54:22.031Z,26.65
2022-12-23T00:56:49.805Z,24.97
2022-12-23T00:59:17.519Z,26.33
2022-12-23T01:02:04.154Z,24.30
2022-12-23T01:04:51.007Z,26.67
2022-12-23T01:07:19.705Z,26.15
2022-12-23T01:09:47.463Z,32.35
2022-12-23T01:12:15.249Z,29.30
2022-12-23T01:14:42.996Z,30.73
2022-12-23T01:17:10.826Z,37.55
2022-12-23T01:19:38.769Z,38.60
2022-12-23T01:22:06.554Z,37.90
2022-12-23T01:24:34.396Z,30.65
2022-12-23T01:27:02.132Z,28.65
2022-12-23T01:29:30.080Z,30.67
2022-12-23T01:31:57.947Z,29.80
2022-12-23T01:34:29.677Z,30.30
2022-12-23T01:37:00.413Z,26.23
2022-12-23T01:39:28.174Z,28.30
2022-12-23T01:42:14.389Z,32.97
2022-12-23T01:44:58.021Z,36.50
2022-12-23T01:47:28.868Z,32.27
2022-12-23T01:50:04.487Z,29.15
2022-12-23T01:52:32.509Z,38.97
2022-12-23T01:55:00.245Z,41.20
2022-12-23T01:57:28.029Z,34.75
2022-12-23T02:00:14.246Z,33.35
2022-12-23T02:03:00.907Z,31.90
2022-12-23T02:05:28.663Z,28.10
2022-12-23T02:08:14.871Z,35.60
2022-12-23T02:10:57.360Z,42.65
2022-12-23T02:13:28.123Z,40.97
2022-12-23T02:16:16.937Z,38.20
2022-12-23T02:19:00.056Z,35.28
2022-12-23T02:21:46.261Z,43.90
2022-12-23T02:24:16.899Z,41.17
2022-12-23T02:26:47.373Z,38.35
2022-12-23T02:29:30.275Z,34.58
2022-12-23T02:31:59.203Z,38.93
2022-12-23T02:34:36.100Z,39.42
2022-12-23T02:37:24.011Z,38.22
2022-12-23T02:39:51.877Z,36.27
2022-12-23T02:42:21.662Z,31.33
2022-12-23T02:45:15.824Z,30.25
2022-12-23T02:47:45.546Z,29.97
2022-12-23T02:50:16.327Z,32.72
2022-12-23T02:52:44.071Z,36.78
2022-12-23T02:55:13.929Z,36.15
2022-12-23T02:57:42.536Z,36.73
2022-12-23T03:00:10.659Z,28.77
2022-12-23T03:02:39.429Z,28.05
2022-12-23T03:05:07.782Z,31.63
2022-12-23T03:07:36.648Z,30.50
2022-12-23T03:10:06.613Z,37.30
2022-12-23T03:12:57.447Z,30.97
2022-12-23T03:15:29.185Z,28.25
2022-12-23T03:17:57.106Z,26.65
2022-12-23T03:20:43.588Z,29.70
2022-12-23T03:23:11.320Z,28.47
2022-12-23T03:25:39.959Z,27.00
2022-12-23T03:28:18.234Z,29.85
2022-12-23T03:30:47.765Z,32.03
2022-12-23T03:33:23.290Z,31.20
2022-12-23T03:35:54.912Z,25.90
2022-12-23T03:38:22.650Z,27.27
2022-12-23T03:40:55.207Z,25.38
2022-12-23T03:43:26.718Z,22.70
2022-12-23T03:45:58.931Z,23.50
2022-12-23T03:48:37.340Z,22.07
2022-12-23T03:51:12.592Z,23.75
2022-12-23T03:53:41.828Z,23.25
2022-12-23T03:56:10.656Z,24.97
2022-12-23T03:59:07.792Z,30.50
2022-12-23T04:01:38.411Z,38.38
2022-12-23T04:04:12.913Z,45.67
2022-12-23T04:06:42.193Z,57.78
2022-12-23T04:09:10.365Z,54.53
2022-12-23T04:11:38.148Z,36.75
2022-12-23T04:14:05.926Z,46.80
2022-12-23T04:16:33.716Z,43.35
2022-12-23T04:19:01.678Z,40.05
2022-12-23T04:21:29.481Z,46.63
2022-12-23T04:23:57.183Z,40.85
2022-12-23T04:26:24.979Z,42.03
2022-12-23T04:28:52.703Z,50.93
2022-12-23T04:31:20.528Z,38.55
2022-12-23T04:33:48.314Z,41.28
2022-12-23T04:36:16.098Z,38.85
2022-12-23T04:38:43.855Z,45.37
2022-12-23T04:41:11.640Z,43.38
2022-12-23T04:43:39.343Z,35.70
2022-12-23T04:46:07.181Z,46.30
2022-12-23T04:48:34.914Z,38.65
2022-12-23T04:51:03.272Z,35.22
2022-12-23T04:53:31.046Z,42.23
2022-12-23T04:55:58.755Z,41.78
2022-12-23T04:58:26.548Z,35.53
2022-12-23T05:01:10.298Z,43.53
2022-12-23T05:03:38.367Z,27.23
2022-12-23T05:06:06.216Z,26.08
2022-12-23T05:08:34.083Z,25.92
2022-12-23T05:11:01.827Z,45.27
2022-12-23T05:13:29.651Z,48.17
2022-12-23T05:15:57.408Z,45.38
2022-12-23T05:18:25.252Z,34.23
2022-12-23T05:20:52.986Z,36.53
2022-12-23T05:23:20.817Z,36.67
2022-12-23T05:25:52.929Z,36.13
2022-12-23T05:28:21.297Z,34.80
2022-12-23T05:30:49.180Z,44.78
2022-12-23T05:33:17.000Z,51.05
2022-12-23T05:35:44.718Z,59.00
2022-12-23T05:38:12.699Z,46.72
2022-12-23T05:40:40.355Z,39.67
2022-12-23T05:43:08.359Z,31.57
2022-12-23T05:45:36.516Z,33.90
2022-12-23T05:48:04.432Z,30.90
2022-12-23T05:50:32.250Z,33.17
2022-12-23T05:53:00.128Z,29.30
2022-12-23T05:55:27.931Z,25.17
2022-12-23T05:57:55.629Z,31.08
2022-12-23T06:00:23.480Z,50.50
2022-12-23T06:02:54.018Z,52.60
2022-12-23T06:05:22.259Z,40.22
2022-12-23T06:07:50.064Z,28.80
2022-12-23T06:10:17.914Z,23.80
2022-12-23T06:12:45.631Z,22.95
2022-12-23T06:15:13.490Z,21.38
2022-12-23T06:17:41.225Z,18.10
2022-12-23T06:20:13.360Z,17.35
2022-12-23T06:22:45.847Z,16.20
2022-12-23T06:25:13.692Z,21.00
2022-12-23T06:27:41.505Z,20.10
2022-12-23T06:30:09.524Z,17.13
2022-12-23T06:32:38.854Z,16.73
2022-12-23T06:35:07.420Z,15.38
2022-12-23T06:37:35.200Z,13.85
2022-12-23T06:40:02.919Z,25.70
2022-12-23T06:42:30.774Z,20.13
2022-12-23T06:44:58.485Z,16.73
2022-12-23T06:47:26.248Z,15.85
2022-12-23T06:49:54.971Z,21.50
2022-12-23T06:52:23.193Z,19.83
2022-12-23T06:54:50.945Z,19.88
2022-12-23T06:57:18.629Z,20.30
2022-12-23T06:59:46.397Z,25.58
2022-12-23T07:02:14.350Z,22.92
2022-12-23T07:04:42.255Z,19.55
2022-12-23T07:07:09.941Z,18.20
2022-12-23T07:09:37.692Z,21.83
2022-12-23T07:12:06.833Z,23.42
2022-12-23T07:14:34.541Z,17.60
2022-12-23T07:17:02.362Z,22.63
2022-12-23T07:19:30.194Z,19.30
2022-12-23T07:21:57.927Z,30.87
2022-12-23T07:24:25.645Z,29.52
2022-12-23T07:26:53.414Z,28.92
2022-12-23T07:29:21.113Z,22.83
2022-12-23T07:31:48.926Z,21.80
2022-12-23T07:34:16.665Z,18.08
2022-12-23T07:36:44.407Z,24.95
2022-12-23T07:39:12.100Z,23.37
2022-12-23T07:41:39.778Z,22.00
2022-12-23T07:44:08.912Z,24.98
2022-12-23T07:46:36.767Z,23.17
2022-12-23T07:49:04.585Z,26.42
2022-12-23T07:51:32.335Z,22.90
2022-12-23T07:54:00.042Z,28.77
2022-12-23T07:56:27.771Z,18.20
2022-12-23T07:58:55.582Z,18.92
2022-12-23T08:01:23.380Z,16.80
2022-12-23T08:03:51.213Z,23.67
2022-12-23T08:06:19.085Z,22.33
2022-12-23T08:08:47.002Z,23.88
2022-12-23T08:11:15.281Z,17.03
2022-12-23T08:13:43.431Z,13.88
2022-12-23T08:16:14.325Z,17.88
2022-12-23T08:18:42.360Z,16.95
2022-12-23T08:21:17.601Z,14.90
2022-12-23T08:23:47.157Z,14.85
2022-12-23T08:26:16.027Z,13.38
2022-12-23T08:28:44.053Z,11.03
2022-12-23T08:31:13.223Z,16.52
2022-12-23T08:33:41.347Z,13.85
2022-12-23T08:36:09.589Z,12.17
2022-12-23T08:38:37.450Z,13.00
2022-12-23T08:41:08.958Z,16.70
2022-12-23T08:43:36.659Z,17.85
2022-12-23T08:46:04.659Z,14.97
2022-12-23T08:48:33.086Z,19.42
2022-12-23T08:51:04.234Z,19.83
2022-12-23T08:53:32.027Z,18.03
2022-12-23T08:56:02.426Z,16.00
2022-12-23T08:58:30.430Z,13.27
2022-12-23T09:00:58.177Z,16.80
2022-12-23T09:03:25.978Z,14.15
2022-12-23T09:05:53.749Z,16.02
2022-12-23T09:08:21.419Z,12.63
2022-12-23T09:10:50.133Z,14.90
2022-12-23T09:13:26.238Z,15.45
2022-12-23T09:15:58.883Z,10.40
2022-12-23T09:18:26.597Z,13.77
2022-12-23T09:21:00.804Z,15.20
2022-12-23T09:23:28.540Z,15.63
2022-12-23T09:25:56.395Z,11.57
2022-12-23T09:28:24.285Z,14.40
2022-12-23T09:30:52.144Z,12.02
2022-12-23T09:33:20.052Z,24.10
2022-12-23T09:35:47.907Z,29.53
2022-12-23T09:38:15.622Z,32.95
2022-12-23T09:40:43.403Z,40.65
2022-12-23T09:43:13.996Z,32.83
2022-12-23T09:45:44.643Z,42.70
2022-12-23T09:48:13.382Z,39.85
2022-12-23T09:50:41.236Z,17.83
2022-12-23T09:53:09.693Z,17.95
2022-12-23T09:55:59.886Z,12.20
2022-12-23T09:58:31.099Z,13.05
2022-12-23T10:01:03.709Z,11.53
2022-12-23T10:03:35.249Z,10.00
2022-12-23T10:06:03.160Z,12.55
2022-12-23T10:08:30.946Z,8.33
2022-12-23T10:11:01.492Z,12.20
2022-12-23T10:13:30.694Z,12.57
2022-12-23T10:15:59.690Z,10.67
2022-12-23T10:18:36.695Z,15.60
2022-12-23T10:21:06.169Z,16.50
2022-12-23T10:23:40.601Z,13.02
2022-12-23T10:26:17.247Z,15.57
2022-12-23T10:28:45.047Z,16.02
2022-12-23T10:31:39.339Z,11.57
2022-12-23T10:34:06.756Z,10.80
2022-12-23T10:36:34.527Z,14.65
2022-12-23T10:39:02.329Z,10.85
2022-12-23T10:41:39.218Z,8.27
2022-12-23T10:44:36.178Z,8.57
2022-12-23T10:47:36.065Z,13.07
2022-12-23T10:50:23.217Z,13.93
2022-12-23T10:52:51.012Z,10.57
2022-12-23T10:55:33.481Z,16.23
2022-12-23T10:58:22.482Z,11.57
2022-12-23T11:00:54.472Z,14.70
2022-12-23T11:03:24.196Z,9.07
2022-12-23T11:05:55.177Z,11.43
2022-12-23T11:08:22.900Z,12.43
2022-12-23T11:10:52.305Z,11.70
2022-12-23T11:13:26.484Z,13.23
2022-12-23T11:15:54.318Z,16.90
2022-12-23T11:18:22.245Z,11.13
2022-12-23T11:21:03.019Z,12.05
2022-12-23T11:23:36.851Z,16.00
2022-12-23T11:26:05.832Z,12.07
2022-12-23T11:28:33.712Z,14.65
2022-12-23T11:31:08.222Z,9.00
2022-12-23T11:33:40.077Z,10.00
2022-12-23T11:36:08.044Z,10.75
2022-12-23T11:38:36.529Z,12.45
2022-12-23T11:41:04.522Z,9.73
2022-12-23T11:43:32.229Z,15.20
2022-12-23T11:46:16.409Z,11.50
2022-12-23T11:48:44.362Z,15.15
2022-12-23T11:51:13.039Z,14.23
2022-12-23T11:53:43.406Z,13.02
2022-12-23T11:56:14.004Z,12.50
2022-12-23T11:58:47.570Z,11.33
2022-12-23T12:01:16.863Z,12.43
2022-12-23T12:03:59.451Z,12.98
2022-12-23T12:06:27.344Z,17.50
2022-12-23T12:08:55.246Z,11.77
2022-12-23T12:11:26.244Z,14.70
2022-12-23T12:14:03.834Z,15.63
2022-12-23T12:16:31.765Z,14.53
2022-12-23T12:19:02.555Z,16.15
2022-12-23T12:21:31.319Z,16.02
2022-12-23T12:24:18.410Z,15.83
2022-12-23T12:26:51.205Z,16.48
2022-12-23T12:29:31.884Z,18.45
2022-12-23T12:31:59.881Z,14.48
2022-12-23T12:34:27.724Z,11.47
2022-12-23T12:37:01.475Z,15.63
2022-12-23T12:39:33.572Z,13.98
2022-12-23T12:42:05.481Z,14.50
2022-12-23T12:44:33.793Z,16.70
2022-12-23T12:47:15.944Z,15.38
2022-12-23T12:50:09.221Z,12.97
2022-12-23T12:52:38.259Z,19.63
2022-12-23T12:55:08.457Z,12.13
2022-12-23T12:57:36.646Z,12.85
2022-12-23T13:00:07.026Z,14.97
2022-12-23T13:02:43.595Z,10.90
2022-12-23T13:05:21.045Z,12.88
2022-12-23T13:08:04.047Z,13.73
2022-12-23T13:10:44.736Z,16.55
2022-12-23T13:13:18.697Z,16.88
2022-12-23T13:15:51.438Z,14.67
2022-12-23T13:18:26.289Z,12.70
2022-12-23T13:21:14.715Z,11.38
2022-12-23T13:23:58.016Z,11.90
2022-12-23T13:26:29.721Z,12.93
2022-12-23T13:29:03.242Z,14.23
2022-12-23T13:31:31.161Z,11.20
2022-12-23T13:34:05.628Z,13.73
2022-12-23T13:36:45.736Z,23.73
2022-12-23T13:39:16.546Z,11.55
2022-12-23T13:41:48.139Z,12.23
2022-12-23T13:44:18.397Z,13.95
2022-12-23T13:47:04.711Z,11.27
2022-12-23T13:49:34.683Z,12.73
2022-12-23T13:52:07.355Z,10.43
2022-12-23T13:54:53.482Z,11.55
2022-12-23T13:57:39.840Z,11.23
2022-12-23T14:00:19.406Z,19.27
2022-12-23T14:03:01.972Z,12.18
2022-12-23T14:05:33.933Z,9.15
2022-12-23T14:08:23.112Z,11.60
2022-12-23T14:10:52.169Z,19.13
2022-12-23T14:13:20.524Z,13.23
2022-12-23T14:15:54.087Z,15.57
2022-12-23T14:18:28.450Z,11.63
2022-12-23T14:21:02.281Z,12.40
2022-12-23T14:23:50.245Z,9.82
2022-12-23T14:26:17.958Z,13.73
2022-12-23T14:28:54.885Z,11.45
2022-12-23T14:31:30.329Z,7.05
2022-12-23T14:34:16.933Z,11.03
2022-12-23T14:37:03.234Z,8.30
2022-12-23T14:39:31.866Z,11.55
2022-12-23T14:42:05.794Z,8.00
2022-12-23T14:44:38.133Z,11.00
2022-12-23T14:47:31.615Z,11.43
2022-12-23T14:50:19.392Z,13.02
2022-12-23T14:52:50.632Z,11.45
2022-12-23T14:55:32.851Z,13.47
2022-12-23T14:58:07.860Z,5.15
2022-12-23T15:00:37.386Z,8.25
2022-12-23T15:03:05.158Z,9.50
2022-12-23T15:05:33.028Z,8.77
2022-12-23T15:08:00.793Z,9.68
2022-12-23T15:10:29.231Z,12.95
2022-12-23T15:12:57.814Z,13.23
2022-12-23T15:15:26.266Z,11.80
2022-12-23T15:18:24.258Z,10.23
2022-12-23T15:21:01.607Z,14.27
2022-12-23T15:23:29.543Z,11.85
2022-12-23T15:25:58.877Z,9.50
2022-12-23T15:28:44.722Z,8.63
2022-12-23T15:31:35.547Z,6.90
2022-12-23T15:34:08.866Z,14.40
2022-12-23T15:36:42.488Z,7.65
2022-12-23T15:39:20.700Z,11.53
2022-12-23T15:41:48.490Z,13.27
2022-12-23T15:44:23.076Z,11.35
2022-12-23T15:46:51.272Z,8.83
2022-12-23T15:49:19.664Z,16.05
2022-12-23T15:52:16.530Z,9.30
2022-12-23T15:54:46.207Z,17.43
2022-12-23T15:57:15.175Z,13.80
2022-12-23T15:59:42.969Z,20.40
2022-12-23T16:05:16.513Z,10.20
2022-12-23T16:07:47.199Z,15.27
2022-12-23T16:10:16.993Z,11.88
2022-12-23T16:12:44.883Z,14.90
2022-12-23T16:15:28.818Z,15.57
2022-12-23T16:18:15.035Z,18.95
2022-12-23T16:20:43.961Z,14.00
2022-12-23T16:23:11.777Z,11.68
2022-12-23T16:25:39.533Z,11.40
2022-12-23T16:28:08.094Z,21.30
2022-12-23T16:30:36.875Z,11.97
2022-12-23T16:33:08.572Z,15.30
2022-12-23T16:35:40.009Z,15.07
2022-12-23T16:38:20.831Z,10.93
2022-12-23T16:40:49.226Z,4.18
2022-12-23T16:43:17.128Z,11.23
2022-12-23T16:45:45.206Z,7.37
2022-12-23T16:48:20.447Z,6.95
2022-12-23T16:50:48.259Z,7.80
2022-12-23T16:53:16.177Z,4.88
2022-12-23T16:55:51.140Z,3.63
2022-12-23T16:58:22.911Z,6.47
2022-12-23T17:00:50.719Z,8.15
2022-12-23T17:03:19.059Z,9.80
2022-12-23T17:05:49.502Z,6.15
2022-12-23T17:08:17.255Z,7.03
2022-12-23T17:10:45.113Z,5.00
2022-12-23T17:13:13.137Z,6.65
2022-12-23T17:15:40.884Z,5.95
2022-12-23T17:18:15.733Z,17.83
2022-12-23T17:20:44.276Z,4.80
2022-12-23T17:23:32.585Z,14.80
2022-12-23T17:26:00.343Z,10.98
2022-12-23T17:28:29.128Z,9.90
2022-12-23T17:30:56.973Z,24.00
2022-12-23T17:33:25.328Z,14.48
2022-12-23T17:35:53.639Z,6.57
2022-12-23T17:38:22.251Z,14.25
2022-12-23T17:40:49.921Z,12.52
2022-12-23T17:43:17.893Z,13.85
2022-12-23T17:45:45.705Z,11.73
2022-12-23T17:48:20.105Z,9.93
2022-12-23T17:50:49.235Z,10.18
2022-12-23T17:53:17.547Z,8.37
2022-12-23T17:55:45.235Z,6.05
2022-12-23T17:58:14.277Z,11.30
2022-12-23T18:00:42.168Z,12.23
2022-12-23T18:03:13.083Z,11.50
2022-12-23T18:05:40.816Z,5.15
2022-12-23T18:08:08.562Z,9.00
2022-12-23T18:10:39.342Z,6.37
2022-12-23T18:13:07.973Z,7.00
2022-12-23T18:15:36.513Z,8.88
2022-12-23T18:18:11.080Z,5.10
2022-12-23T18:20:38.803Z,10.15
2022-12-23T18:23:06.656Z,11.15
2022-12-23T18:25:34.464Z,9.00
2022-12-23T18:28:02.282Z,4.18
2022-12-23T18:30:30.070Z,8.45
2022-12-23T18:32:57.765Z,11.65
2022-12-23T18:35:31.545Z,11.67
2022-12-23T18:37:59.363Z,9.50
2022-12-23T18:40:32.529Z,12.40
2022-12-23T18:43:00.749Z,7.43
2022-12-23T18:45:32.512Z,6.10
2022-12-23T18:48:00.385Z,15.23
2022-12-23T18:50:28.832Z,7.00
2022-12-23T18:52:58.012Z,4.78
2022-12-23T18:55:25.878Z,11.90
2022-12-23T18:57:53.670Z,7.72
2022-12-23T19:00:25.287Z,4.27
2022-12-23T19:02:53.597Z,5.85
2022-12-23T19:05:23.828Z,14.15
2022-12-23T19:07:51.770Z,4.23
2022-12-23T19:10:21.239Z,8.20
2022-12-23T19:12:49.074Z,7.93
2022-12-23T19:15:16.974Z,5.37
2022-12-23T19:17:44.768Z,12.15
2022-12-23T19:20:13.307Z,8.98
2022-12-23T19:22:41.152Z,6.28
2022-12-23T19:25:09.463Z,19.97
2022-12-23T19:27:39.133Z,4.15
2022-12-23T19:30:07.518Z,7.22
2022-12-23T19:32:35.323Z,4.10
2022-12-23T19:35:03.779Z,4.28
2022-12-23T19:37:33.532Z,9.10
2022-12-23T19:40:01.492Z,5.27
2022-12-23T19:42:29.447Z,7.90
2022-12-23T19:44:57.294Z,11.80
2022-12-23T19:47:25.083Z,12.43
2022-12-23T19:49:52.882Z,7.40
2022-12-23T19:52:20.784Z,4.35
2022-12-23T19:54:48.559Z,6.57
2022-12-23T19:57:16.354Z,8.00
2022-12-23T19:59:44.100Z,5.97
2022-12-23T20:02:18.765Z,4.38
2022-12-23T20:04:46.744Z,5.07
2022-12-23T20:07:14.518Z,10.38
2022-12-23T20:09:42.294Z,11.77
2022-12-23T20:12:10.182Z,18.63
2022-12-23T20:14:38.170Z,16.50
2022-12-23T20:17:07.465Z,9.60
2022-12-23T20:19:39.126Z,7.57
2022-12-23T20:22:11.604Z,7.70
2022-12-23T20:24:39.597Z,6.82
2022-12-23T20:27:11.239Z,8.75
2022-12-23T20:29:40.542Z,12.13
2022-12-23T20:32:08.211Z,6.72
2022-12-23T20:34:39.581Z,4.90
2022-12-23T20:37:08.477Z,14.40
2022-12-23T20:39:36.935Z,18.23
2022-12-23T20:42:04.992Z,8.70
2022-12-23T20:44:37.544Z,8.90
2022-12-23T20:47:08.417Z,8.53
2022-12-23T20:49:36.290Z,12.80
2022-12-23T20:52:04.165Z,7.70
2022-12-23T20:54:33.737Z,4.30
2022-12-23T20:57:02.443Z,12.35
2022-12-23T20:59:30.264Z,14.23
2022-12-23T21:01:59.502Z,9.52
2022-12-23T21:04:27.390Z,7.47
2022-12-23T21:06:55.239Z,19.30
2022-12-23T21:09:23.007Z,7.80
2022-12-23T21:11:50.804Z,12.63
2022-12-23T21:14:18.639Z,8.90
2022-12-23T21:16:46.469Z,9.35
2022-12-23T21:19:15.792Z,7.93
2022-12-23T21:21:43.577Z,12.40
2022-12-23T21:24:11.658Z,9.40
2022-12-23T21:26:39.419Z,14.73
2022-12-23T21:29:07.521Z,13.67
2022-12-23T21:31:36.098Z,10.77
2022-12-23T21:34:04.111Z,5.07
2022-12-23T21:36:32.735Z,9.40
2022-12-23T21:39:00.522Z,9.93
2022-12-23T21:41:29.228Z,6.03
2022-12-23T21:43:57.229Z,12.03
2022-12-23T21:46:25.157Z,9.60
2022-12-23T21:48:53.158Z,4.88
2022-12-23T21:51:21.723Z,8.32
2022-12-23T21:53:50.038Z,5.87
2022-12-23T21:56:20.431Z,8.77
2022-12-23T21:58:48.161Z,8.05
2022-12-23T22:01:17.273Z,3.20
2022-12-23T22:03:45.372Z,8.00
2022-12-23T22:06:16.588Z,10.70
2022-12-23T22:08:44.543Z,6.40
2022-12-23T22:11:13.048Z,4.72
2022-12-23T22:13:41.206Z,4.70
2022-12-23T22:16:12.296Z,6.63
2022-12-23T22:18:40.339Z,4.67
2022-12-23T22:21:09.173Z,6.25
2022-12-23T22:23:37.413Z,7.13
2022-12-23T22:26:05.176Z,5.60
2022-12-23T22:28:33.247Z,11.07
2022-12-23T22:31:04.174Z,11.30
2022-12-23T22:33:32.488Z,10.27
2022-12-23T22:36:00.334Z,4.65
2022-12-23T22:38:28.181Z,5.68
2022-12-23T22:40:55.929Z,5.47
2022-12-23T22:43:23.743Z,6.57
2022-12-23T22:45:57.803Z,8.57
2022-12-23T22:48:26.137Z,7.32
2022-12-23T22:51:03.943Z,8.63
2022-12-23T22:53:32.317Z,13.80
2022-12-23T22:56:00.566Z,12.32
2022-12-23T22:58:28.524Z,6.00
2022-12-23T23:00:56.363Z,3.55
2022-12-23T23:03:24.236Z,7.82
2022-12-23T23:06:01.699Z,5.05
2022-12-23T23:08:29.617Z,5.03
2022-12-23T23:11:00.807Z,9.02
2022-12-23T23:13:29.517Z,4.85
2022-12-23T23:15:57.463Z,7.73
2022-12-23T23:18:25.394Z,8.40
2022-12-23T23:20:53.234Z,7.82
2022-12-23T23:23:21.004Z,5.67
2022-12-23T23:25:48.909Z,5.40
2022-12-23T23:28:16.716Z,15.27
2022-12-23T23:30:44.543Z,7.45
2022-12-23T23:33:12.434Z,10.27
2022-12-23T23:35:40.176Z,10.13
2022-12-23T23:38:08.540Z,6.82
2022-12-23T23:40:36.209Z,6.53
2022-12-23T23:43:04.025Z,4.47
2022-12-23T23:45:31.869Z,10.40
2022-12-23T23:47:59.696Z,4.03
2022-12-23T23:50:27.412Z,6.40
2022-12-23T23:52:55.222Z,4.57
2022-12-23T23:55:22.956Z,12.60
2022-12-23T23:57:50.726Z,7.70
